sensor_id;sensor_type;location;lat;lon;timestamp;P1;durP1;ratioP1;P2;durP2;ratioP2
27539;SDS011;15906;52.046;4.724;2023-05-13T00:00:13;14.18;;;11.43;;
27539;SDS011;15906;52.046;4.724;2023-05-13T00:02:40;14.15;;;10.85;;
27539;SDS011;15906;52.046;4.724;2023-05-13T00:05:06;12.60;;;9.85;;
27539;SDS011;15906;52.046;4.724;2023-05-13T00:07:32;11.35;;;9.95;;
27539;SDS011;15906;52.046;4.724;2023-05-13T00:09:57;16.48;;;9.85;;
27539;SDS011;15906;52.046;4.724;2023-05-13T00:12:23;12.60;;;9.88;;
27539;SDS011;15906;52.046;4.724;2023-05-13T00:14:48;15.13;;;9.48;;
27539;SDS011;15906;52.046;4.724;2023-05-13T00:17:14;15.73;;;8.82;;
27539;SDS011;15906;52.046;4.724;2023-05-13T00:19:39;12.13;;;8.88;;
27539;SDS011;15906;52.046;4.724;2023-05-13T00:22:05;11.75;;;8.93;;
27539;SDS011;15906;52.046;4.724;2023-05-13T00:24:31;8.93;;;8.00;;
27539;SDS011;15906;52.046;4.724;2023-05-13T00:26:56;10.07;;;8.07;;
27539;SDS011;15906;52.046;4.724;2023-05-13T00:29:22;8.60;;;7.15;;
27539;SDS011;15906;52.046;4.724;2023-05-13T00:31:48;12.70;;;7.63;;
27539;SDS011;15906;52.046;4.724;2023-05-13T00:34:13;12.55;;;6.90;;
27539;SDS011;15906;52.046;4.724;2023-05-13T00:36:40;10.82;;;6.72;;
27539;SDS011;15906;52.046;4.724;2023-05-13T00:39:06;9.75;;;7.00;;
27539;SDS011;15906;52.046;4.724;2023-05-13T00:41:31;8.60;;;6.10;;
27539;SDS011;15906;52.046;4.724;2023-05-13T00:43:57;7.30;;;6.28;;
27539;SDS011;15906;52.046;4.724;2023-05-13T00:46:23;10.68;;;6.00;;
27539;SDS011;15906;52.046;4.724;2023-05-13T00:48:49;10.38;;;6.88;;
27539;SDS011;15906;52.046;4.724;2023-05-13T00:51:15;9.30;;;8.40;;
27539;SDS011;15906;52.046;4.724;2023-05-13T00:53:41;6.82;;;5.88;;
27539;SDS011;15906;52.046;4.724;2023-05-13T00:56:07;7.72;;;5.78;;
27539;SDS011;15906;52.046;4.724;2023-05-13T00:58:33;8.70;;;5.85;;
27539;SDS011;15906;52.046;4.724;2023-05-13T01:01:20;10.18;;;7.35;;
27539;SDS011;15906;52.046;4.724;2023-05-13T01:07:17;9.80;;;6.88;;
27539;SDS011;15906;52.046;4.724;2023-05-13T01:10:02;10.02;;;7.30;;
27539;SDS011;15906;52.046;4.724;2023-05-13T01:12:39;11.25;;;7.00;;
27539;SDS011;15906;52.046;4.724;2023-05-13T01:15:23;10.10;;;8.52;;
27539;SDS011;15906;52.046;4.724;2023-05-13T01:17:58;13.90;;;8.68;;
27539;SDS011;15906;52.046;4.724;2023-05-13T01:20:34;14.25;;;9.20;;
27539;SDS011;15906;52.046;4.724;2023-05-13T01:23:04;12.52;;;8.35;;
27539;SDS011;15906;52.046;4.724;2023-05-13T01:25:30;17.27;;;9.23;;
27539;SDS011;15906;52.046;4.724;2023-05-13T01:27:56;12.45;;;9.05;;
27539;SDS011;15906;52.046;4.724;2023-05-13T01:30:21;11.07;;;8.23;;
27539;SDS011;15906;52.046;4.724;2023-05-13T01:32:47;11.95;;;8.82;;
27539;SDS011;15906;52.046;4.724;2023-05-13T01:35:15;12.05;;;8.80;;
27539;SDS011;15906;52.046;4.724;2023-05-13T01:37:41;13.77;;;8.68;;
27539;SDS011;15906;52.046;4.724;2023-05-13T01:40:07;12.52;;;8.75;;
27539;SDS011;15906;52.046;4.724;2023-05-13T01:42:34;11.50;;;9.05;;
27539;SDS011;15906;52.046;4.724;2023-05-13T01:45:00;12.65;;;9.18;;
27539;SDS011;15906;52.046;4.724;2023-05-13T01:47:26;10.73;;;8.75;;
27539;SDS011;15906;52.046;4.724;2023-05-13T01:49:52;11.35;;;8.52;;
27539;SDS011;15906;52.046;4.724;2023-05-13T01:52:17;9.30;;;8.27;;
27539;SDS011;15906;52.046;4.724;2023-05-13T01:54:43;22.00;;;9.25;;
27539;SDS011;15906;52.046;4.724;2023-05-13T01:57:08;11.38;;;8.73;;
27539;SDS011;15906;52.046;4.724;2023-05-13T01:59:34;14.43;;;9.05;;
27539;SDS011;15906;52.046;4.724;2023-05-13T02:02:00;14.90;;;9.35;;
27539;SDS011;15906;52.046;4.724;2023-05-13T02:04:25;12.77;;;8.65;;
27539;SDS011;15906;52.046;4.724;2023-05-13T02:06:51;10.75;;;8.80;;
27539;SDS011;15906;52.046;4.724;2023-05-13T02:09:16;9.48;;;8.48;;
27539;SDS011;15906;52.046;4.724;2023-05-13T02:11:43;10.95;;;9.60;;
27539;SDS011;15906;52.046;4.724;2023-05-13T02:14:09;13.93;;;9.50;;
27539;SDS011;15906;52.046;4.724;2023-05-13T02:16:35;14.35;;;9.63;;
27539;SDS011;15906;52.046;4.724;2023-05-13T02:19:00;12.10;;;10.00;;
27539;SDS011;15906;52.046;4.724;2023-05-13T02:21:26;11.38;;;9.32;;
27539;SDS011;15906;52.046;4.724;2023-05-13T02:23:51;14.50;;;10.20;;
27539;SDS011;15906;52.046;4.724;2023-05-13T02:26:17;13.25;;;11.18;;
27539;SDS011;15906;52.046;4.724;2023-05-13T02:28:42;16.75;;;11.20;;
27539;SDS011;15906;52.046;4.724;2023-05-13T02:31:08;11.27;;;10.15;;
27539;SDS011;15906;52.046;4.724;2023-05-13T02:33:34;12.43;;;10.38;;
27539;SDS011;15906;52.046;4.724;2023-05-13T02:35:59;12.77;;;10.57;;
27539;SDS011;15906;52.046;4.724;2023-05-13T02:38:25;12.75;;;10.35;;
27539;SDS011;15906;52.046;4.724;2023-05-13T02:40:50;13.32;;;10.50;;
27539;SDS011;15906;52.046;4.724;2023-05-13T02:43:16;12.77;;;10.30;;
27539;SDS011;15906;52.046;4.724;2023-05-13T02:45:42;11.98;;;10.55;;
27539;SDS011;15906;52.046;4.724;2023-05-13T02:48:08;12.68;;;11.15;;
27539;SDS011;15906;52.046;4.724;2023-05-13T02:50:35;11.75;;;10.55;;
27539;SDS011;15906;52.046;4.724;2023-05-13T02:53:00;13.57;;;10.85;;
27539;SDS011;15906;52.046;4.724;2023-05-13T02:55:26;14.70;;;11.55;;
27539;SDS011;15906;52.046;4.724;2023-05-13T02:57:51;15.40;;;11.30;;
27539;SDS011;15906;52.046;4.724;2023-05-13T03:00:17;14.57;;;11.70;;
27539;SDS011;15906;52.046;4.724;2023-05-13T03:02:43;11.98;;;10.73;;
27539;SDS011;15906;52.046;4.724;2023-05-13T03:05:08;14.15;;;12.13;;
27539;SDS011;15906;52.046;4.724;2023-05-13T03:07:34;15.25;;;11.52;;
27539;SDS011;15906;52.046;4.724;2023-05-13T03:09:59;15.10;;;11.88;;
27539;SDS011;15906;52.046;4.724;2023-05-13T03:12:25;16.17;;;12.73;;
27539;SDS011;15906;52.046;4.724;2023-05-13T03:14:50;14.68;;;13.07;;
27539;SDS011;15906;52.046;4.724;2023-05-13T03:17:16;16.33;;;12.85;;
27539;SDS011;15906;52.046;4.724;2023-05-13T03:19:42;14.10;;;12.65;;
27539;SDS011;15906;52.046;4.724;2023-05-13T03:22:07;18.10;;;13.65;;
27539;SDS011;15906;52.046;4.724;2023-05-13T03:24:33;15.75;;;13.57;;
27539;SDS011;15906;52.046;4.724;2023-05-13T03:26:59;15.32;;;13.68;;
27539;SDS011;15906;52.046;4.724;2023-05-13T03:29:24;20.88;;;13.30;;
27539;SDS011;15906;52.046;4.724;2023-05-13T03:31:51;20.15;;;13.52;;
27539;SDS011;15906;52.046;4.724;2023-05-13T03:34:17;16.13;;;13.73;;
27539;SDS011;15906;52.046;4.724;2023-05-13T03:36:42;19.73;;;14.90;;
27539;SDS011;15906;52.046;4.724;2023-05-13T03:39:08;18.92;;;14.57;;
27539;SDS011;15906;52.046;4.724;2023-05-13T03:41:34;18.55;;;13.43;;
27539;SDS011;15906;52.046;4.724;2023-05-13T03:44:00;19.73;;;14.75;;
27539;SDS011;15906;52.046;4.724;2023-05-13T03:46:26;18.90;;;14.40;;
27539;SDS011;15906;52.046;4.724;2023-05-13T03:48:52;17.63;;;14.75;;
27539;SDS011;15906;52.046;4.724;2023-05-13T03:51:22;17.98;;;15.25;;
27539;SDS011;15906;52.046;4.724;2023-05-13T03:53:47;18.88;;;15.13;;
27539;SDS011;15906;52.046;4.724;2023-05-13T03:56:13;16.38;;;14.13;;
27539;SDS011;15906;52.046;4.724;2023-05-13T03:58:39;17.77;;;14.88;;
27539;SDS011;15906;52.046;4.724;2023-05-13T04:01:05;19.73;;;14.57;;
27539;SDS011;15906;52.046;4.724;2023-05-13T04:03:31;20.60;;;14.15;;
27539;SDS011;15906;52.046;4.724;2023-05-13T04:05:58;20.52;;;14.77;;
27539;SDS011;15906;52.046;4.724;2023-05-13T04:08:24;23.30;;;15.02;;
27539;SDS011;15906;52.046;4.724;2023-05-13T04:10:49;22.20;;;16.25;;
27539;SDS011;15906;52.046;4.724;2023-05-13T04:13:15;17.70;;;14.63;;
27539;SDS011;15906;52.046;4.724;2023-05-13T04:15:41;20.08;;;14.88;;
27539;SDS011;15906;52.046;4.724;2023-05-13T04:18:06;18.60;;;15.70;;
27539;SDS011;15906;52.046;4.724;2023-05-13T04:20:32;20.60;;;15.35;;
27539;SDS011;15906;52.046;4.724;2023-05-13T04:22:57;21.15;;;16.17;;
27539;SDS011;15906;52.046;4.724;2023-05-13T04:25:23;19.90;;;16.35;;
27539;SDS011;15906;52.046;4.724;2023-05-13T04:27:48;18.40;;;15.63;;
27539;SDS011;15906;52.046;4.724;2023-05-13T04:30:14;20.42;;;16.17;;
27539;SDS011;15906;52.046;4.724;2023-05-13T04:32:40;22.65;;;16.13;;
27539;SDS011;15906;52.046;4.724;2023-05-13T04:35:06;21.52;;;16.85;;
27539;SDS011;15906;52.046;4.724;2023-05-13T04:37:31;20.75;;;16.23;;
27539;SDS011;15906;52.046;4.724;2023-05-13T04:39:57;22.95;;;16.60;;
27539;SDS011;15906;52.046;4.724;2023-05-13T04:42:23;19.73;;;17.02;;
27539;SDS011;15906;52.046;4.724;2023-05-13T04:44:48;19.17;;;16.98;;
27539;SDS011;15906;52.046;4.724;2023-05-13T04:47:14;21.27;;;16.70;;
27539;SDS011;15906;52.046;4.724;2023-05-13T04:49:40;22.88;;;17.10;;
27539;SDS011;15906;52.046;4.724;2023-05-13T04:52:06;22.95;;;17.38;;
27539;SDS011;15906;52.046;4.724;2023-05-13T04:54:32;24.25;;;17.77;;
27539;SDS011;15906;52.046;4.724;2023-05-13T04:56:59;24.25;;;18.65;;
27539;SDS011;15906;52.046;4.724;2023-05-13T04:59:26;24.42;;;18.23;;
27539;SDS011;15906;52.046;4.724;2023-05-13T05:01:51;23.70;;;18.88;;
27539;SDS011;15906;52.046;4.724;2023-05-13T05:04:17;24.08;;;17.98;;
27539;SDS011;15906;52.046;4.724;2023-05-13T05:06:42;22.00;;;18.20;;
27539;SDS011;15906;52.046;4.724;2023-05-13T05:09:08;25.10;;;19.33;;
27539;SDS011;15906;52.046;4.724;2023-05-13T05:11:33;22.48;;;18.20;;
27539;SDS011;15906;52.046;4.724;2023-05-13T05:13:59;21.65;;;18.98;;
27539;SDS011;15906;52.046;4.724;2023-05-13T05:16:25;24.52;;;18.95;;
27539;SDS011;15906;52.046;4.724;2023-05-13T05:18:50;26.05;;;18.67;;
27539;SDS011;15906;52.046;4.724;2023-05-13T05:21:16;26.95;;;18.23;;
27539;SDS011;15906;52.046;4.724;2023-05-13T05:23:42;25.65;;;18.67;;
27539;SDS011;15906;52.046;4.724;2023-05-13T05:26:08;24.38;;;18.65;;
27539;SDS011;15906;52.046;4.724;2023-05-13T05:28:33;24.20;;;19.05;;
27539;SDS011;15906;52.046;4.724;2023-05-13T05:31:00;27.73;;;19.42;;
27539;SDS011;15906;52.046;4.724;2023-05-13T05:33:26;24.85;;;19.40;;
27539;SDS011;15906;52.046;4.724;2023-05-13T05:35:52;23.58;;;18.50;;
27539;SDS011;15906;52.046;4.724;2023-05-13T05:38:18;27.35;;;19.42;;
27539;SDS011;15906;52.046;4.724;2023-05-13T05:40:43;23.00;;;19.27;;
27539;SDS011;15906;52.046;4.724;2023-05-13T05:43:09;24.05;;;19.23;;
27539;SDS011;15906;52.046;4.724;2023-05-13T05:45:36;28.55;;;18.52;;
27539;SDS011;15906;52.046;4.724;2023-05-13T05:48:02;27.95;;;18.65;;
27539;SDS011;15906;52.046;4.724;2023-05-13T05:50:28;20.83;;;17.55;;
27539;SDS011;15906;52.046;4.724;2023-05-13T05:52:53;24.77;;;18.25;;
27539;SDS011;15906;52.046;4.724;2023-05-13T05:55:20;22.27;;;17.33;;
27539;SDS011;15906;52.046;4.724;2023-05-13T05:57:45;24.95;;;18.13;;
27539;SDS011;15906;52.046;4.724;2023-05-13T06:00:11;20.48;;;16.48;;
27539;SDS011;15906;52.046;4.724;2023-05-13T06:02:37;21.23;;;16.73;;
27539;SDS011;15906;52.046;4.724;2023-05-13T06:05:03;19.92;;;16.88;;
27539;SDS011;15906;52.046;4.724;2023-05-13T06:07:29;22.08;;;16.10;;
27539;SDS011;15906;52.046;4.724;2023-05-13T06:09:54;20.33;;;16.48;;
27539;SDS011;15906;52.046;4.724;2023-05-13T06:12:20;22.13;;;15.85;;
27539;SDS011;15906;52.046;4.724;2023-05-13T06:14:46;23.00;;;16.15;;
27539;SDS011;15906;52.046;4.724;2023-05-13T06:17:12;19.27;;;16.38;;
27539;SDS011;15906;52.046;4.724;2023-05-13T06:19:41;22.40;;;16.30;;
27539;SDS011;15906;52.046;4.724;2023-05-13T06:22:10;22.00;;;15.68;;
27539;SDS011;15906;52.046;4.724;2023-05-13T06:24:36;20.98;;;15.73;;
27539;SDS011;15906;52.046;4.724;2023-05-13T06:27:02;24.10;;;15.32;;
27539;SDS011;15906;52.046;4.724;2023-05-13T06:29:28;20.60;;;15.02;;
27539;SDS011;15906;52.046;4.724;2023-05-13T06:31:54;20.00;;;15.25;;
27539;SDS011;15906;52.046;4.724;2023-05-13T06:34:20;25.13;;;16.83;;
27539;SDS011;15906;52.046;4.724;2023-05-13T06:36:45;18.63;;;15.77;;
27539;SDS011;15906;52.046;4.724;2023-05-13T06:39:11;18.63;;;15.40;;
27539;SDS011;15906;52.046;4.724;2023-05-13T06:41:37;19.13;;;14.95;;
27539;SDS011;15906;52.046;4.724;2023-05-13T06:44:06;18.45;;;14.95;;
27539;SDS011;15906;52.046;4.724;2023-05-13T06:46:32;18.13;;;15.20;;
27539;SDS011;15906;52.046;4.724;2023-05-13T06:48:57;19.85;;;14.80;;
27539;SDS011;15906;52.046;4.724;2023-05-13T06:51:23;18.45;;;14.65;;
27539;SDS011;15906;52.046;4.724;2023-05-13T06:53:51;17.77;;;14.18;;
27539;SDS011;15906;52.046;4.724;2023-05-13T06:56:17;16.83;;;13.65;;
27539;SDS011;15906;52.046;4.724;2023-05-13T06:58:43;18.60;;;14.73;;
27539;SDS011;15906;52.046;4.724;2023-05-13T07:01:08;19.52;;;14.57;;
27539;SDS011;15906;52.046;4.724;2023-05-13T07:03:34;15.32;;;13.38;;
27539;SDS011;15906;52.046;4.724;2023-05-13T07:06:00;13.90;;;12.35;;
27539;SDS011;15906;52.046;4.724;2023-05-13T07:08:25;15.30;;;12.40;;
27539;SDS011;15906;52.046;4.724;2023-05-13T07:10:51;16.63;;;12.68;;
27539;SDS011;15906;52.046;4.724;2023-05-13T07:13:17;20.63;;;12.15;;
27539;SDS011;15906;52.046;4.724;2023-05-13T07:15:43;13.70;;;12.18;;
27539;SDS011;15906;52.046;4.724;2023-05-13T07:18:11;16.10;;;11.98;;
27539;SDS011;15906;52.046;4.724;2023-05-13T07:20:36;15.93;;;11.77;;
27539;SDS011;15906;52.046;4.724;2023-05-13T07:23:02;15.07;;;10.77;;
27539;SDS011;15906;52.046;4.724;2023-05-13T07:25:27;12.80;;;10.65;;
27539;SDS011;15906;52.046;4.724;2023-05-13T07:27:53;12.57;;;11.20;;
27539;SDS011;15906;52.046;4.724;2023-05-13T07:30:19;16.00;;;11.45;;
27539;SDS011;15906;52.046;4.724;2023-05-13T07:32:45;11.95;;;9.93;;
27539;SDS011;15906;52.046;4.724;2023-05-13T07:35:10;15.70;;;10.18;;
27539;SDS011;15906;52.046;4.724;2023-05-13T07:37:36;11.40;;;9.00;;
27539;SDS011;15906;52.046;4.724;2023-05-13T07:40:02;11.48;;;9.18;;
27539;SDS011;15906;52.046;4.724;2023-05-13T07:42:29;12.57;;;9.70;;
27539;SDS011;15906;52.046;4.724;2023-05-13T07:44:55;12.25;;;8.40;;
27539;SDS011;15906;52.046;4.724;2023-05-13T07:47:20;15.68;;;9.48;;
27539;SDS011;15906;52.046;4.724;2023-05-13T07:49:46;13.23;;;8.80;;
27539;SDS011;15906;52.046;4.724;2023-05-13T07:52:12;12.23;;;9.18;;
27539;SDS011;15906;52.046;4.724;2023-05-13T07:54:38;11.95;;;9.38;;
27539;SDS011;15906;52.046;4.724;2023-05-13T07:57:03;15.00;;;8.90;;
27539;SDS011;15906;52.046;4.724;2023-05-13T07:59:29;13.00;;;9.10;;
27539;SDS011;15906;52.046;4.724;2023-05-13T08:01:55;11.10;;;8.75;;
27539;SDS011;15906;52.046;4.724;2023-05-13T08:04:20;16.10;;;8.02;;
27539;SDS011;15906;52.046;4.724;2023-05-13T08:06:46;13.45;;;8.05;;
27539;SDS011;15906;52.046;4.724;2023-05-13T08:09:11;13.25;;;8.43;;
27539;SDS011;15906;52.046;4.724;2023-05-13T08:11:38;11.90;;;8.10;;
27539;SDS011;15906;52.046;4.724;2023-05-13T08:14:04;10.57;;;8.27;;
27539;SDS011;15906;52.046;4.724;2023-05-13T08:16:30;16.95;;;8.80;;
27539;SDS011;15906;52.046;4.724;2023-05-13T08:18:55;13.15;;;8.30;;
27539;SDS011;15906;52.046;4.724;2023-05-13T08:21:21;14.80;;;8.65;;
27539;SDS011;15906;52.046;4.724;2023-05-13T08:23:48;12.70;;;8.98;;
27539;SDS011;15906;52.046;4.724;2023-05-13T08:26:15;14.43;;;8.85;;
27539;SDS011;15906;52.046;4.724;2023-05-13T08:28:41;12.75;;;8.25;;
27539;SDS011;15906;52.046;4.724;2023-05-13T08:31:07;13.40;;;7.53;;
27539;SDS011;15906;52.046;4.724;2023-05-13T08:33:32;12.35;;;7.80;;
27539;SDS011;15906;52.046;4.724;2023-05-13T08:35:59;12.15;;;8.98;;
27539;SDS011;15906;52.046;4.724;2023-05-13T08:38:25;10.85;;;8.05;;
27539;SDS011;15906;52.046;4.724;2023-05-13T08:40:50;10.95;;;7.82;;
27539;SDS011;15906;52.046;4.724;2023-05-13T08:43:16;11.15;;;8.30;;
27539;SDS011;15906;52.046;4.724;2023-05-13T08:45:44;12.13;;;7.95;;
27539;SDS011;15906;52.046;4.724;2023-05-13T08:48:13;10.98;;;8.82;;
27539;SDS011;15906;52.046;4.724;2023-05-13T08:50:40;13.65;;;9.10;;
27539;SDS011;15906;52.046;4.724;2023-05-13T08:53:06;12.07;;;7.80;;
27539;SDS011;15906;52.046;4.724;2023-05-13T08:55:33;10.25;;;8.63;;
27539;SDS011;15906;52.046;4.724;2023-05-13T08:57:59;10.90;;;8.18;;
27539;SDS011;15906;52.046;4.724;2023-05-13T09:00:24;13.27;;;8.20;;
27539;SDS011;15906;52.046;4.724;2023-05-13T09:02:50;14.43;;;8.05;;
27539;SDS011;15906;52.046;4.724;2023-05-13T09:05:16;10.95;;;7.82;;
27539;SDS011;15906;52.046;4.724;2023-05-13T09:07:42;13.73;;;8.65;;
27539;SDS011;15906;52.046;4.724;2023-05-13T09:10:08;11.35;;;7.88;;
27539;SDS011;15906;52.046;4.724;2023-05-13T09:15:10;9.43;;;8.40;;
27539;SDS011;15906;52.046;4.724;2023-05-13T09:17:41;11.10;;;8.18;;
27539;SDS011;15906;52.046;4.724;2023-05-13T09:20:08;10.82;;;7.60;;
27539;SDS011;15906;52.046;4.724;2023-05-13T09:22:35;10.32;;;8.00;;
27539;SDS011;15906;52.046;4.724;2023-05-13T09:28:36;9.90;;;8.13;;
27539;SDS011;15906;52.046;4.724;2023-05-13T09:31:01;10.85;;;8.20;;
27539;SDS011;15906;52.046;4.724;2023-05-13T09:33:28;12.20;;;7.28;;
27539;SDS011;15906;52.046;4.724;2023-05-13T09:35:57;10.45;;;7.50;;
27539;SDS011;15906;52.046;4.724;2023-05-13T09:38:51;9.30;;;7.57;;
27539;SDS011;15906;52.046;4.724;2023-05-13T09:41:19;11.02;;;7.47;;
27539;SDS011;15906;52.046;4.724;2023-05-13T09:43:49;11.55;;;8.02;;
27539;SDS011;15906;52.046;4.724;2023-05-13T09:46:55;10.48;;;7.88;;
27539;SDS011;15906;52.046;4.724;2023-05-13T09:50:08;11.43;;;7.97;;
27539;SDS011;15906;52.046;4.724;2023-05-13T09:52:56;10.02;;;7.57;;
27539;SDS011;15906;52.046;4.724;2023-05-13T09:56:07;12.57;;;7.90;;
27539;SDS011;15906;52.046;4.724;2023-05-13T09:59:15;9.13;;;7.00;;
27539;SDS011;15906;52.046;4.724;2023-05-13T10:02:06;12.10;;;8.10;;
27539;SDS011;15906;52.046;4.724;2023-05-13T10:05:14;11.38;;;7.35;;
27539;SDS011;15906;52.046;4.724;2023-05-13T10:08:15;7.63;;;6.22;;
27539;SDS011;15906;52.046;4.724;2023-05-13T10:10:53;8.35;;;7.00;;
27539;SDS011;15906;52.046;4.724;2023-05-13T10:13:49;10.57;;;7.80;;
27539;SDS011;15906;52.046;4.724;2023-05-13T10:16:22;9.95;;;6.43;;
27539;SDS011;15906;52.046;4.724;2023-05-13T10:18:57;11.93;;;7.43;;
27539;SDS011;15906;52.046;4.724;2023-05-13T10:22:09;8.27;;;7.32;;
27539;SDS011;15906;52.046;4.724;2023-05-13T10:24:40;8.55;;;7.63;;
27539;SDS011;15906;52.046;4.724;2023-05-13T10:27:43;11.18;;;7.68;;
27539;SDS011;15906;52.046;4.724;2023-05-13T10:30:52;8.65;;;7.80;;
27539;SDS011;15906;52.046;4.724;2023-05-13T10:34:17;12.10;;;7.30;;
27539;SDS011;15906;52.046;4.724;2023-05-13T10:43:39;9.75;;;7.70;;
27539;SDS011;15906;52.046;4.724;2023-05-13T10:46:50;11.68;;;7.93;;
27539;SDS011;15906;52.046;4.724;2023-05-13T10:50:23;12.00;;;7.30;;
27539;SDS011;15906;52.046;4.724;2023-05-13T10:53:54;9.57;;;7.22;;
27539;SDS011;15906;52.046;4.724;2023-05-13T10:56:54;12.48;;;6.85;;
27539;SDS011;15906;52.046;4.724;2023-05-13T11:06:41;8.77;;;7.05;;
27539;SDS011;15906;52.046;4.724;2023-05-13T11:10:02;8.93;;;6.63;;
27539;SDS011;15906;52.046;4.724;2023-05-13T11:13:20;14.00;;;7.88;;
27539;SDS011;15906;52.046;4.724;2023-05-13T11:19:49;12.20;;;7.93;;
27539;SDS011;15906;52.046;4.724;2023-05-13T11:22:19;10.45;;;7.63;;
27539;SDS011;15906;52.046;4.724;2023-05-13T11:25:09;9.48;;;7.53;;
27539;SDS011;15906;52.046;4.724;2023-05-13T11:27:46;10.43;;;6.68;;
27539;SDS011;15906;52.046;4.724;2023-05-13T11:30:36;10.70;;;7.85;;
27539;SDS011;15906;52.046;4.724;2023-05-13T11:33:05;10.15;;;7.50;;
27539;SDS011;15906;52.046;4.724;2023-05-13T11:36:13;13.50;;;7.75;;
27539;SDS011;15906;52.046;4.724;2023-05-13T11:39:23;10.13;;;7.18;;
27539;SDS011;15906;52.046;4.724;2023-05-13T11:42:15;9.85;;;6.95;;
27539;SDS011;15906;52.046;4.724;2023-05-13T11:45:22;11.15;;;7.88;;
27539;SDS011;15906;52.046;4.724;2023-05-13T11:48:22;12.45;;;6.95;;
27539;SDS011;15906;52.046;4.724;2023-05-13T11:51:04;12.15;;;7.60;;
27539;SDS011;15906;52.046;4.724;2023-05-13T11:54:11;8.88;;;6.93;;
27539;SDS011;15906;52.046;4.724;2023-05-13T11:57:13;10.43;;;7.30;;
27539;SDS011;15906;52.046;4.724;2023-05-13T12:00:02;11.10;;;6.65;;
27539;SDS011;15906;52.046;4.724;2023-05-13T12:03:14;8.13;;;6.57;;
27539;SDS011;15906;52.046;4.724;2023-05-13T12:05:40;10.50;;;7.63;;
27539;SDS011;15906;52.046;4.724;2023-05-13T12:08:43;8.23;;;6.45;;
27539;SDS011;15906;52.046;4.724;2023-05-13T12:11:14;8.68;;;7.13;;
27539;SDS011;15906;52.046;4.724;2023-05-13T12:13:40;10.35;;;7.15;;
27539;SDS011;15906;52.046;4.724;2023-05-13T12:16:26;12.15;;;7.13;;
27539;SDS011;15906;52.046;4.724;2023-05-13T12:18:55;9.13;;;7.43;;
27539;SDS011;15906;52.046;4.724;2023-05-13T12:22:22;9.85;;;7.13;;
27539;SDS011;15906;52.046;4.724;2023-05-13T12:25:35;10.65;;;7.78;;
27539;SDS011;15906;52.046;4.724;2023-05-13T12:29:01;8.60;;;7.38;;
27539;SDS011;15906;52.046;4.724;2023-05-13T12:32:32;9.85;;;8.30;;
27539;SDS011;15906;52.046;4.724;2023-05-13T12:36:16;10.52;;;7.97;;
27539;SDS011;15906;52.046;4.724;2023-05-13T12:39:39;11.30;;;7.43;;
27539;SDS011;15906;52.046;4.724;2023-05-13T12:42:48;11.35;;;8.13;;
27539;SDS011;15906;52.046;4.724;2023-05-13T12:45:56;14.27;;;7.43;;
27539;SDS011;15906;52.046;4.724;2023-05-13T12:48:57;10.20;;;7.85;;
27539;SDS011;15906;52.046;4.724;2023-05-13T12:52:24;9.00;;;7.75;;
27539;SDS011;15906;52.046;4.724;2023-05-13T12:55:32;9.90;;;7.80;;
27539;SDS011;15906;52.046;4.724;2023-05-13T12:58:09;12.48;;;8.82;;
27539;SDS011;15906;52.046;4.724;2023-05-13T13:01:01;11.32;;;9.38;;
27539;SDS011;15906;52.046;4.724;2023-05-13T13:03:31;11.20;;;7.88;;
27539;SDS011;15906;52.046;4.724;2023-05-13T13:05:57;14.48;;;8.40;;
27539;SDS011;15906;52.046;4.724;2023-05-13T13:08:23;12.93;;;8.88;;
27539;SDS011;15906;52.046;4.724;2023-05-13T13:11:11;9.93;;;8.48;;
27539;SDS011;15906;52.046;4.724;2023-05-13T13:13:57;10.38;;;8.18;;
27539;SDS011;15906;52.046;4.724;2023-05-13T13:16:24;12.10;;;8.80;;
27539;SDS011;15906;52.046;4.724;2023-05-13T13:18:51;8.60;;;7.57;;
27539;SDS011;15906;52.046;4.724;2023-05-13T13:21:18;13.88;;;7.95;;
27539;SDS011;15906;52.046;4.724;2023-05-13T13:23:45;10.50;;;9.32;;
27539;SDS011;15906;52.046;4.724;2023-05-13T13:26:13;10.00;;;8.55;;
27539;SDS011;15906;52.046;4.724;2023-05-13T13:29:23;8.90;;;8.00;;
27539;SDS011;15906;52.046;4.724;2023-05-13T13:32:32;12.85;;;8.48;;
27539;SDS011;15906;52.046;4.724;2023-05-13T13:35:22;12.15;;;8.48;;
27539;SDS011;15906;52.046;4.724;2023-05-13T13:38:48;14.60;;;8.48;;
27539;SDS011;15906;52.046;4.724;2023-05-13T13:41:37;11.38;;;7.30;;
27539;SDS011;15906;52.046;4.724;2023-05-13T13:44:24;12.38;;;7.72;;
27539;SDS011;15906;52.046;4.724;2023-05-13T13:47:22;11.63;;;8.48;;
27539;SDS011;15906;52.046;4.724;2023-05-13T13:49:55;13.60;;;8.60;;
27539;SDS011;15906;52.046;4.724;2023-05-13T13:53:22;10.98;;;7.50;;
27539;SDS011;15906;52.046;4.724;2023-05-13T13:56:47;9.57;;;7.30;;
27539;SDS011;15906;52.046;4.724;2023-05-13T14:00:01;13.18;;;7.93;;
27539;SDS011;15906;52.046;4.724;2023-05-13T14:03:30;11.82;;;6.45;;
27539;SDS011;15906;52.046;4.724;2023-05-13T14:06:39;12.48;;;7.72;;
27539;SDS011;15906;52.046;4.724;2023-05-13T14:09:46;10.00;;;8.23;;
27539;SDS011;15906;52.046;4.724;2023-05-13T14:13:00;14.02;;;8.07;;
27539;SDS011;15906;52.046;4.724;2023-05-13T14:15:48;11.95;;;8.10;;
27539;SDS011;15906;52.046;4.724;2023-05-13T14:18:56;11.48;;;7.93;;
27539;SDS011;15906;52.046;4.724;2023-05-13T14:22:07;12.73;;;8.30;;
27539;SDS011;15906;52.046;4.724;2023-05-13T14:25:16;11.43;;;8.93;;
27539;SDS011;15906;52.046;4.724;2023-05-13T14:27:56;15.05;;;8.88;;
27539;SDS011;15906;52.046;4.724;2023-05-13T14:30:57;9.70;;;8.30;;
27539;SDS011;15906;52.046;4.724;2023-05-13T14:33:24;12.45;;;8.02;;
27539;SDS011;15906;52.046;4.724;2023-05-13T14:36:33;9.65;;;8.30;;
27539;SDS011;15906;52.046;4.724;2023-05-13T14:39:43;16.60;;;8.80;;
27539;SDS011;15906;52.046;4.724;2023-05-13T14:43:01;11.88;;;7.60;;
27539;SDS011;15906;52.046;4.724;2023-05-13T14:46:13;11.85;;;7.15;;
27539;SDS011;15906;52.046;4.724;2023-05-13T14:49:22;12.80;;;8.27;;
27539;SDS011;15906;52.046;4.724;2023-05-13T14:52:09;9.18;;;8.27;;
27539;SDS011;15906;52.046;4.724;2023-05-13T14:54:56;10.32;;;7.32;;
27539;SDS011;15906;52.046;4.724;2023-05-13T14:58:09;9.70;;;7.97;;
27539;SDS011;15906;52.046;4.724;2023-05-13T15:00:41;10.05;;;8.38;;
27539;SDS011;15906;52.046;4.724;2023-05-13T15:03:55;10.07;;;8.00;;
27539;SDS011;15906;52.046;4.724;2023-05-13T15:06:42;13.18;;;8.25;;
27539;SDS011;15906;52.046;4.724;2023-05-13T15:09:29;11.75;;;8.32;;
27539;SDS011;15906;52.046;4.724;2023-05-13T15:12:37;9.90;;;8.32;;
27539;SDS011;15906;52.046;4.724;2023-05-13T15:15:51;10.27;;;7.28;;
27539;SDS011;15906;52.046;4.724;2023-05-13T15:18:38;10.40;;;6.90;;
27539;SDS011;15906;52.046;4.724;2023-05-13T15:21:11;11.50;;;7.55;;
27539;SDS011;15906;52.046;4.724;2023-05-13T15:23:57;10.77;;;7.30;;
27539;SDS011;15906;52.046;4.724;2023-05-13T15:26:47;11.57;;;7.68;;
27539;SDS011;15906;52.046;4.724;2023-05-13T15:29:46;10.30;;;7.35;;
27539;SDS011;15906;52.046;4.724;2023-05-13T15:32:53;11.68;;;7.43;;
27539;SDS011;15906;52.046;4.724;2023-05-13T15:35:41;9.40;;;7.28;;
27539;SDS011;15906;52.046;4.724;2023-05-13T15:38:21;12.23;;;8.10;;
27539;SDS011;15906;52.046;4.724;2023-05-13T15:41:05;10.30;;;7.22;;
27539;SDS011;15906;52.046;4.724;2023-05-13T15:43:35;14.10;;;7.40;;
27539;SDS011;15906;52.046;4.724;2023-05-13T15:46:00;10.93;;;6.78;;
27539;SDS011;15906;52.046;4.724;2023-05-13T15:48:27;10.90;;;7.45;;
27539;SDS011;15906;52.046;4.724;2023-05-13T15:50:58;11.65;;;6.40;;